sensor_id;sensor_type;location;lat;lon;timestamp;pressure;altitude;pressure_sealevel;temperature;humidity
43691;BME280;29293;52.190;21.226;2023-05-10T00:15:07;101034.15;;;5.00;88.48
43691;BME280;29293;52.190;21.226;2023-05-10T00:30:15;101023.38;;;4.89;89.36
43691;BME280;29293;52.190;21.226;2023-05-10T00:45:21;101010.31;;;4.89;88.84
43691;BME280;29293;52.190;21.226;2023-05-10T01:00:29;101002.62;;;4.87;85.94
43691;BME280;29293;52.190;21.226;2023-05-10T01:15:37;100999.62;;;4.84;84.74
43691;BME280;29293;52.190;21.226;2023-05-10T01:46:27;100987.46;;;4.84;80.99
43691;BME280;29293;52.190;21.226;2023-05-10T02:01:37;100968.93;;;4.93;79.21
43691;BME280;29293;52.190;21.226;2023-05-10T02:16:46;100959.70;;;4.96;77.58
43691;BME280;29293;52.190;21.226;2023-05-10T02:31:52;100958.85;;;4.87;76.78
43691;BME280;29293;52.190;21.226;2023-05-10T02:47:00;100966.48;;;4.63;78.60
43691;BME280;29293;52.190;21.226;2023-05-10T03:02:07;100969.16;;;4.44;80.14
43691;BME280;29293;52.190;21.226;2023-05-10T03:17:25;100972.11;;;4.29;81.75
43691;BME280;29293;52.190;21.226;2023-05-10T03:32:35;100976.83;;;4.23;83.61
43691;BME280;29293;52.190;21.226;2023-05-10T03:47:42;100967.50;;;4.35;85.46
43691;BME280;29293;52.190;21.226;2023-05-10T04:02:49;100961.17;;;4.69;85.71
43691;BME280;29293;52.190;21.226;2023-05-10T04:17:56;100958.08;;;5.20;84.70
43691;BME280;29293;52.190;21.226;2023-05-10T04:33:02;100960.48;;;5.83;82.86
43691;BME280;29293;52.190;21.226;2023-05-10T04:48:09;100967.15;;;6.45;78.76
43691;BME280;29293;52.190;21.226;2023-05-10T05:03:16;100967.37;;;7.07;73.50
43691;BME280;29293;52.190;21.226;2023-05-10T05:18:23;100973.60;;;7.82;69.18
43691;BME280;29293;52.190;21.226;2023-05-10T05:33:30;100966.31;;;8.62;65.84
43691;BME280;29293;52.190;21.226;2023-05-10T05:48:37;100966.53;;;9.10;62.54
43691;BME280;29293;52.190;21.226;2023-05-10T06:03:43;100970.46;;;9.78;59.25
43691;BME280;29293;52.190;21.226;2023-05-10T06:18:50;100969.81;;;10.46;57.07
43691;BME280;29293;52.190;21.226;2023-05-10T06:34:05;100967.55;;;11.48;53.56
43691;BME280;29293;52.190;21.226;2023-05-10T06:49:20;100963.34;;;13.23;50.61
43691;BME280;29293;52.190;21.226;2023-05-10T07:04:31;100959.63;;;14.59;47.63
43691;BME280;29293;52.190;21.226;2023-05-10T07:19:43;100950.54;;;15.49;43.34
43691;BME280;29293;52.190;21.226;2023-05-10T07:34:57;100942.99;;;15.90;41.08
43691;BME280;29293;52.190;21.226;2023-05-10T07:50:04;100948.52;;;16.22;38.25
43691;BME280;29293;52.190;21.226;2023-05-10T08:05:11;100945.81;;;16.32;35.45
43691;BME280;29293;52.190;21.226;2023-05-10T08:20:18;100939.13;;;16.56;33.20
43691;BME280;29293;52.190;21.226;2023-05-10T08:35:26;100934.57;;;16.93;33.08
43691;BME280;29293;52.190;21.226;2023-05-10T08:50:33;100936.69;;;17.19;34.09
43691;BME280;29293;52.190;21.226;2023-05-10T09:05:40;100924.30;;;17.38;33.03
43691;BME280;29293;52.190;21.226;2023-05-10T09:20:48;100916.83;;;17.40;32.16
43691;BME280;29293;52.190;21.226;2023-05-10T09:35:55;100900.64;;;17.62;32.04
43691;BME280;29293;52.190;21.226;2023-05-10T09:51:01;100908.48;;;18.02;31.95
43691;BME280;29293;52.190;21.226;2023-05-10T10:06:09;100908.61;;;18.04;31.77
43691;BME280;29293;52.190;21.226;2023-05-10T10:21:16;100888.27;;;18.22;32.31
43691;BME280;29293;52.190;21.226;2023-05-10T10:36:23;100878.20;;;18.48;31.07
43691;BME280;29293;52.190;21.226;2023-05-10T10:51:32;100852.58;;;18.53;30.62
43691;BME280;29293;52.190;21.226;2023-05-10T11:06:43;100852.13;;;18.71;30.25
43691;BME280;29293;52.190;21.226;2023-05-10T11:37:19;100826.27;;;19.31;30.46
43691;BME280;29293;52.190;21.226;2023-05-10T11:52:26;100822.33;;;19.42;29.61
43691;BME280;29293;52.190;21.226;2023-05-10T12:07:34;100816.57;;;19.49;29.91
43691;BME280;29293;52.190;21.226;2023-05-10T12:22:41;100804.45;;;19.64;29.99
43691;BME280;29293;52.190;21.226;2023-05-10T12:37:48;100802.14;;;20.07;29.68
43691;BME280;29293;52.190;21.226;2023-05-10T12:52:55;100802.81;;;20.15;30.09
43691;BME280;29293;52.190;21.226;2023-05-10T13:08:05;100793.28;;;19.87;30.38
43691;BME280;29293;52.190;21.226;2023-05-10T13:23:12;100778.75;;;19.97;30.14
43691;BME280;29293;52.190;21.226;2023-05-10T13:38:19;100774.52;;;20.02;29.31
43691;BME280;29293;52.190;21.226;2023-05-10T13:53:26;100767.95;;;19.67;29.12
43691;BME280;29293;52.190;21.226;2023-05-10T14:08:33;100760.23;;;19.36;29.16
43691;BME280;29293;52.190;21.226;2023-05-10T14:23:42;100748.45;;;19.40;29.42
43691;BME280;29293;52.190;21.226;2023-05-10T14:38:50;100746.36;;;19.18;29.43
43691;BME280;29293;52.190;21.226;2023-05-10T14:53:57;100742.86;;;18.83;30.00
43691;BME280;29293;52.190;21.226;2023-05-10T15:09:04;100741.20;;;18.59;30.22
43691;BME280;29293;52.190;21.226;2023-05-10T15:24:11;100734.27;;;18.03;30.14
43691;BME280;29293;52.190;21.226;2023-05-10T15:39:18;100736.02;;;17.49;31.06
43691;BME280;29293;52.190;21.226;2023-05-10T15:54:25;100730.77;;;16.76;31.10
43691;BME280;29293;52.190;21.226;2023-05-10T16:09:32;100734.89;;;16.33;31.81
43691;BME280;29293;52.190;21.226;2023-05-10T16:24:39;100733.45;;;16.07;32.41
43691;BME280;29293;52.190;21.226;2023-05-10T16:39:46;100737.27;;;15.74;32.72
43691;BME280;29293;52.190;21.226;2023-05-10T16:54:54;100743.33;;;15.37;33.78
43691;BME280;29293;52.190;21.226;2023-05-10T17:10:01;100754.10;;;14.98;34.31
43691;BME280;29293;52.190;21.226;2023-05-10T17:25:09;100759.65;;;14.67;34.71
43691;BME280;29293;52.190;21.226;2023-05-10T17:40:16;100764.90;;;14.34;35.44
43691;BME280;29293;52.190;21.226;2023-05-10T17:55:22;100780.23;;;13.83;36.47
43691;BME280;29293;52.190;21.226;2023-05-10T18:10:31;100790.80;;;13.35;36.97
43691;BME280;29293;52.190;21.226;2023-05-10T18:25:38;100796.67;;;12.93;37.60
43691;BME280;29293;52.190;21.226;2023-05-10T18:40:45;100807.76;;;12.48;38.73
43691;BME280;29293;52.190;21.226;2023-05-10T18:55:59;100832.25;;;12.06;39.95
43691;BME280;29293;52.190;21.226;2023-05-10T19:11:06;100844.64;;;11.52;41.68
43691;BME280;29293;52.190;21.226;2023-05-10T19:26:13;100840.19;;;11.02;43.19
43691;BME280;29293;52.190;21.226;2023-05-10T19:41:19;100839.23;;;10.51;45.17
43691;BME280;29293;52.190;21.226;2023-05-10T19:56:27;100849.50;;;10.03;46.75
43691;BME280;29293;52.190;21.226;2023-05-10T20:11:34;100852.83;;;9.59;47.84
43691;BME280;29293;52.190;21.226;2023-05-10T20:26:41;100856.98;;;9.29;48.76
43691;BME280;29293;52.190;21.226;2023-05-10T20:41:48;100855.83;;;9.01;49.55
43691;BME280;29293;52.190;21.226;2023-05-10T20:56:54;100861.30;;;8.86;49.70
43691;BME280;29293;52.190;21.226;2023-05-10T21:12:01;100880.98;;;8.77;50.23
43691;BME280;29293;52.190;21.226;2023-05-10T21:27:09;100887.80;;;8.63;50.81
43691;BME280;29293;52.190;21.226;2023-05-10T21:42:16;100894.39;;;8.49;51.17
43691;BME280;29293;52.190;21.226;2023-05-10T21:57:23;100898.11;;;8.27;51.81
43691;BME280;29293;52.190;21.226;2023-05-10T22:12:30;100905.77;;;8.09;52.47
43691;BME280;29293;52.190;21.226;2023-05-10T22:27:36;100916.30;;;7.90;52.86
43691;BME280;29293;52.190;21.226;2023-05-10T22:42:43;100930.09;;;7.70;53.71
43691;BME280;29293;52.190;21.226;2023-05-10T22:57:51;100938.36;;;7.47;54.64
43691;BME280;29293;52.190;21.226;2023-05-10T23:12:57;100940.92;;;7.21;55.71
43691;BME280;29293;52.190;21.226;2023-05-10T23:28:05;100941.35;;;6.97;56.71
43691;BME280;29293;52.190;21.226;2023-05-10T23:43:12;100943.45;;;6.73;57.93
43691;BME280;29293;52.190;21.226;2023-05-10T23:58:20;100945.68;;;6.52;58.68
